Time,TemperatureF,DewpointF,PressureIn,WindDirection,WindDirectionDegrees,WindSpeedMPH,WindSpeedGustMPH,Humidity,HourlyPrecipIn,Conditions,Clouds,dailyrainin,SolarRadiationWatts/m^2,SoftwareType,DateUTC
2013-01-28 00:00:00,34.2,30.2,30.45,SSE,163,2.0,2.0,85,0.00,,,0.00,0.0,meteohub,2013-01-28 05:00:00,
2013-01-28 00:01:00,34.2,30.2,30.45,SSE,163,0.0,2.0,85,0.00,,,0.00,0.0,meteohub,2013-01-28 05:01:00,
2013-01-28 00:04:00,34.2,30.2,30.45,SSW,196,0.0,2.0,85,0.00,,,0.00,0.0,meteohub,2013-01-28 05:04:00,
2013-01-28 00:09:00,34.2,29.8,30.45,SSW,196,0.0,3.0,84,0.00,,,0.00,0.0,meteohub,2013-01-28 05:09:00,
2013-01-28 00:14:00,34.3,30.0,30.45,SSW,196,0.0,3.0,84,0.00,,,0.00,0.0,meteohub,2013-01-28 05:14:00,
2013-01-28 00:19:00,34.3,29.7,30.44,South,188,1.0,3.0,83,0.00,,,0.00,0.0,meteohub,2013-01-28 05:19:00,
2013-01-28 00:24:00,34.3,29.7,30.44,WSW,239,0.0,3.0,83,0.00,,,0.00,0.0,meteohub,2013-01-28 05:24:00,
2013-01-28 00:30:00,34.3,29.7,30.44,SW,233,1.0,3.0,83,0.00,,,0.00,0.0,meteohub,2013-01-28 05:30:00,
2013-01-28 00:35:00,34.3,29.7,30.45,WSW,240,0.0,3.0,83,0.00,,,0.00,0.0,meteohub,2013-01-28 05:35:00,
2013-01-28 00:40:00,34.3,29.7,30.45,ESE,116,1.0,3.0,83,0.00,,,0.00,0.0,meteohub,2013-01-28 05:40:00,
2013-01-28 00:45:00,34.5,30.2,30.45,ESE,116,1.0,4.0,84,0.00,,,0.00,0.0,meteohub,2013-01-28 05:45:00,
2013-01-28 00:50:00,34.3,29.7,30.44,ESE,116,1.0,4.0,83,0.00,,,0.00,0.0,meteohub,2013-01-28 05:50:00,
2013-01-28 00:55:00,34.5,29.8,30.44,ESE,116,1.0,4.0,83,0.00,,,0.00,0.0,meteohub,2013-01-28 05:55:00,
2013-01-28 01:00:00,34.5,29.8,30.44,SW,223,2.0,3.0,83,0.00,,,0.00,0.0,meteohub,2013-01-28 06:00:00,
2013-01-28 01:05:00,34.3,29.7,30.44,SE,141,1.0,4.0,83,0.00,,,0.00,0.0,meteohub,2013-01-28 06:05:00,
2013-01-28 01:10:00,34.5,30.2,30.44,SE,141,0.0,4.0,84,0.00,,,0.00,0.0,meteohub,2013-01-28 06:10:00,
2013-01-28 01:15:00,34.3,29.7,30.44,SSW,192,1.0,4.0,83,0.00,,,0.00,0.0,meteohub,2013-01-28 06:15:00,
2013-01-28 01:20:00,34.2,29.5,30.44,SSW,192,0.0,3.0,83,0.00,,,0.00,0.0,meteohub,2013-01-28 06:20:00,
2013-01-28 01:25:00,34.2,29.5,30.43,SSW,192,2.0,3.0,83,0.00,,,0.00,0.0,meteohub,2013-01-28 06:25:00,
2013-01-28 01:30:00,34.3,30.0,30.43,SSW,192,1.0,2.0,84,0.00,,,0.00,0.0,meteohub,2013-01-28 06:30:00,
2013-01-28 01:35:00,34.3,30.0,30.43,SSW,192,0.0,2.0,84,0.00,,,0.00,0.0,meteohub,2013-01-28 06:35:00,
2013-01-28 01:40:00,34.5,30.2,30.43,SSW,192,0.0,2.0,84,0.00,,,0.00,0.0,meteohub,2013-01-28 06:40:00,
2013-01-28 01:45:00,34.5,29.8,30.43,SSW,192,0.0,1.0,83,0.00,,,0.00,0.0,meteohub,2013-01-28 06:45:00,
2013-01-28 01:50:00,34.5,29.8,30.42,SSW,192,0.0,1.0,83,0.00,,,0.00,0.0,meteohub,2013-01-28 06:50:00,
2013-01-28 01:56:00,34.3,30.0,30.43,SSW,192,0.0,1.0,84,0.00,,,0.00,0.0,meteohub,2013-01-28 06:56:00,
2013-01-28 02:01:00,34.3,30.0,30.43,SSW,192,0.0,0.0,84,0.00,,,0.00,0.0,meteohub,2013-01-28 07:01:00,
2013-01-28 02:06:00,34.3,30.0,30.43,SSW,192,0.0,2.0,84,0.00,,,0.00,0.0,meteohub,2013-01-28 07:06:00,
2013-01-28 02:11:00,34.3,30.4,30.44,SSW,192,0.0,2.0,85,0.00,,,0.00,0.0,meteohub,2013-01-28 07:11:00,
2013-01-28 02:16:00,34.5,30.2,30.43,SSW,192,0.0,2.0,84,0.00,,,0.00,0.0,meteohub,2013-01-28 07:16:00,
2013-01-28 02:21:00,34.5,30.2,30.43,SSW,192,0.0,2.0,84,0.00,,,0.00,0.0,meteohub,2013-01-28 07:21:00,
2013-01-28 02:26:00,34.2,29.8,30.43,SSW,192,0.0,2.0,84,0.00,,,0.00,0.0,meteohub,2013-01-28 07:26:00,
2013-01-28 02:31:00,34.0,30.0,30.43,SSW,192,0.0,2.0,85,0.00,,,0.00,0.0,meteohub,2013-01-28 07:31:00,
2013-01-28 02:36:00,34.0,30.0,30.43,SSW,192,0.0,1.0,85,0.00,,,0.00,0.0,meteohub,2013-01-28 07:36:00,
2013-01-28 02:41:00,34.0,30.0,30.43,SSW,192,0.0,1.0,85,0.00,,,0.00,0.0,meteohub,2013-01-28 07:41:00,
2013-01-28 02:46:00,34.0,30.2,30.43,SSW,195,1.0,1.0,86,0.00,,,0.00,0.0,meteohub,2013-01-28 07:46:00,
2013-01-28 02:51:00,34.3,30.0,30.43,SSW,195,1.0,2.0,84,0.00,,,0.00,0.0,meteohub,2013-01-28 07:51:00,
2013-01-28 02:56:00,34.3,30.4,30.43,SSW,195,0.0,2.0,85,0.00,,,0.00,0.0,meteohub,2013-01-28 07:56:00,
2013-01-28 03:02:00,34.7,30.4,30.43,SSW,195,1.0,2.0,84,0.00,,,0.00,0.0,meteohub,2013-01-28 08:02:00,
2013-01-28 03:07:00,34.9,30.2,30.44,SSW,195,0.0,1.0,83,0.00,,,0.00,0.0,meteohub,2013-01-28 08:07:00,
2013-01-28 03:12:00,34.7,30.4,30.43,SSW,195,1.0,1.0,84,0.00,,,0.00,0.0,meteohub,2013-01-28 08:12:00,
2013-01-28 03:17:00,34.9,30.6,30.43,SSW,195,0.0,1.0,84,0.00,,,0.00,0.0,meteohub,2013-01-28 08:17:00,
2013-01-28 03:22:00,35.1,30.4,30.43,SSW,195,0.0,1.0,83,0.00,,,0.00,0.0,meteohub,2013-01-28 08:22:00,
2013-01-28 03:27:00,35.2,30.4,30.43,SSW,194,0.0,1.0,82,0.00,,,0.00,0.0,meteohub,2013-01-28 08:27:00,
2013-01-28 03:32:00,35.4,30.7,30.43,SSW,194,0.0,3.0,83,0.00,,,0.00,0.0,meteohub,2013-01-28 08:32:00,
2013-01-28 03:37:00,35.4,30.7,30.43,SSW,194,0.0,3.0,83,0.00,,,0.00,0.0,meteohub,2013-01-28 08:37:00,
2013-01-28 03:42:00,35.4,30.7,30.43,East,82,1.0,1.0,83,0.00,,,0.00,0.0,meteohub,2013-01-28 08:42:00,
2013-01-28 03:47:00,35.4,30.7,30.43,East,83,0.0,2.0,83,0.00,,,0.00,0.0,meteohub,2013-01-28 08:47:00,
2013-01-28 03:52:00,35.2,30.4,30.43,East,83,0.0,2.0,82,0.00,,,0.00,0.0,meteohub,2013-01-28 08:52:00,
2013-01-28 03:57:00,35.1,30.2,30.43,SSE,167,1.0,2.0,82,0.00,,,0.00,0.0,meteohub,2013-01-28 08:57:00,
2013-01-28 04:02:00,35.1,30.2,30.43,SE,131,2.0,4.0,82,0.00,,,0.00,0.0,meteohub,2013-01-28 09:02:00,
2013-01-28 04:07:00,35.1,30.2,30.43,SE,131,1.0,4.0,82,0.00,,,0.00,0.0,meteohub,2013-01-28 09:07:00,
2013-01-28 04:12:00,34.7,29.8,30.42,South,170,0.0,4.0,82,0.00,,,0.00,0.0,meteohub,2013-01-28 09:12:00,
2013-01-28 04:17:00,34.3,29.5,30.42,South,170,0.0,3.0,82,0.00,,,0.00,0.0,meteohub,2013-01-28 09:17:00,
2013-01-28 04:22:00,34.3,29.7,30.43,SSW,192,0.0,3.0,83,0.00,,,0.00,0.0,meteohub,2013-01-28 09:22:00,
2013-01-28 04:27:00,34.5,29.8,30.43,SE,128,0.0,4.0,83,0.00,,,0.00,0.0,meteohub,2013-01-28 09:27:00,
2013-01-28 04:32:00,34.5,29.8,30.43,SSE,152,0.0,4.0,83,0.00,,,0.00,0.0,meteohub,2013-01-28 09:32:00,
2013-01-28 04:37:00,34.5,29.8,30.42,East,87,2.0,4.0,83,0.00,,,0.00,0.0,meteohub,2013-01-28 09:37:00,
2013-01-28 04:43:00,34.7,30.0,30.43,East,87,0.0,3.0,83,0.00,,,0.00,0.0,meteohub,2013-01-28 09:43:00,
2013-01-28 04:48:00,34.5,29.8,30.43,East,87,0.0,3.0,83,0.00,,,0.00,0.0,meteohub,2013-01-28 09:48:00,
2013-01-28 04:53:00,34.2,29.5,30.43,East,87,0.0,2.0,83,0.00,,,0.00,0.0,meteohub,2013-01-28 09:53:00,
2013-01-28 04:58:00,34.2,29.5,30.43,East,87,0.0,2.0,83,0.00,,,0.00,0.0,meteohub,2013-01-28 09:58:00,
2013-01-28 05:03:00,34.0,29.3,30.43,East,87,0.0,2.0,83,0.00,,,0.00,0.0,meteohub,2013-01-28 10:03:00,
2013-01-28 05:08:00,34.2,29.8,30.43,East,87,0.0,1.0,84,0.00,,,0.00,0.0,meteohub,2013-01-28 10:08:00,
2013-01-28 05:13:00,34.3,30.4,30.43,East,87,0.0,1.0,85,0.00,,,0.00,0.0,meteohub,2013-01-28 10:13:00,
2013-01-28 05:18:00,34.5,30.2,30.43,East,87,0.0,1.0,84,0.00,,,0.00,0.0,meteohub,2013-01-28 10:18:00,
2013-01-28 05:23:00,34.7,30.4,30.43,East,87,0.0,2.0,84,0.00,,,0.00,0.0,meteohub,2013-01-28 10:23:00,
2013-01-28 05:28:00,34.5,30.2,30.43,East,87,0.0,2.0,84,0.00,,,0.00,0.0,meteohub,2013-01-28 10:28:00,
2013-01-28 05:33:00,34.9,30.9,30.43,East,87,1.0,2.0,85,0.00,,,0.00,0.0,meteohub,2013-01-28 10:33:00,
2013-01-28 05:38:00,35.1,30.9,30.43,East,87,0.0,3.0,85,0.00,,,0.00,0.0,meteohub,2013-01-28 10:38:00,
2013-01-28 05:43:00,35.8,32.5,30.43,East,87,0.0,3.0,88,0.00,,,0.00,0.0,meteohub,2013-01-28 10:43:00,
2013-01-28 05:48:00,36.1,32.7,30.43,East,87,0.0,3.0,87,0.00,,,0.00,0.0,meteohub,2013-01-28 10:48:00,
2013-01-28 05:53:00,36.7,33.4,30.43,East,87,0.0,3.0,88,0.00,,,0.00,0.0,meteohub,2013-01-28 10:53:00,
2013-01-28 05:58:00,37.6,34.9,30.43,NNW,327,0.0,3.0,90,0.00,,,0.00,0.0,meteohub,2013-01-28 10:58:00,
2013-01-28 06:03:00,38.8,36.1,30.43,South,188,0.0,4.0,90,0.00,,,0.00,0.0,meteohub,2013-01-28 11:03:00,
2013-01-28 06:08:00,39.4,36.7,30.43,SSW,213,0.0,4.0,90,0.00,,,0.00,0.0,meteohub,2013-01-28 11:08:00,
2013-01-28 06:13:00,39.7,37.0,30.43,WNW,284,0.0,4.0,90,0.00,,,0.00,0.0,meteohub,2013-01-28 11:13:00,
2013-01-28 06:19:00,40.3,37.6,30.43,NNW,327,1.0,3.0,90,0.00,,,0.00,0.0,meteohub,2013-01-28 11:19:00,
2013-01-28 06:24:00,40.5,37.8,30.43,NNW,327,0.0,2.0,90,0.00,,,0.00,0.0,meteohub,2013-01-28 11:24:00,
2013-01-28 06:29:00,40.6,37.9,30.43,NNW,327,1.0,3.0,90,0.00,,,0.00,0.0,meteohub,2013-01-28 11:29:00,
2013-01-28 06:34:00,40.8,38.1,30.43,NNW,327,0.0,3.0,90,0.00,,,0.00,0.0,meteohub,2013-01-28 11:34:00,
2013-01-28 06:39:00,41.4,39.0,30.43,NNW,327,2.0,3.0,91,0.00,,,0.00,0.0,meteohub,2013-01-28 11:39:00,
2013-01-28 06:44:00,41.5,39.4,30.43,NNE,13,1.0,2.0,92,0.00,,,0.00,0.0,meteohub,2013-01-28 11:44:00,
2013-01-28 06:49:00,42.3,40.5,30.43,NW,322,0.0,4.0,93,0.00,,,0.00,0.0,meteohub,2013-01-28 11:49:00,
2013-01-28 06:54:00,42.4,40.6,30.43,SE,144,0.0,4.0,93,0.00,,,0.00,0.0,meteohub,2013-01-28 11:54:00,
2013-01-28 06:59:00,43.0,41.2,30.43,NE,37,0.0,4.0,93,0.00,,,0.00,0.0,meteohub,2013-01-28 11:59:00,
2013-01-28 07:04:00,43.2,41.5,30.43,SE,132,1.0,3.0,94,0.00,,,0.00,0.0,meteohub,2013-01-28 12:04:00,
2013-01-28 07:09:00,44.1,42.4,30.43,South,176,1.0,3.0,94,0.00,,,0.00,0.0,meteohub,2013-01-28 12:09:00,
2013-01-28 07:15:00,44.1,42.4,30.43,WSW,258,4.0,5.0,94,0.00,,,0.00,0.0,meteohub,2013-01-28 12:15:00,
2013-01-28 07:20:00,44.2,42.6,30.43,SW,227,0.0,5.0,94,0.00,,,0.00,0.0,meteohub,2013-01-28 12:20:00,
2013-01-28 07:25:00,43.9,41.9,30.43,South,178,1.0,5.0,93,0.00,,,0.00,0.0,meteohub,2013-01-28 12:25:00,
2013-01-28 07:30:00,43.5,41.7,30.43,South,175,0.0,4.0,93,0.00,,,0.00,0.0,meteohub,2013-01-28 12:30:00,
2013-01-28 07:35:00,43.9,42.3,30.43,WSW,256,1.0,4.0,94,0.00,,,0.00,0.0,meteohub,2013-01-28 12:35:00,
2013-01-28 07:40:00,44.1,42.4,30.43,WSW,256,0.0,4.0,94,0.00,,,0.00,0.0,meteohub,2013-01-28 12:40:00,
2013-01-28 07:45:00,44.2,43.0,30.43,SW,229,1.0,4.0,95,0.00,,,0.00,0.0,meteohub,2013-01-28 12:45:00,
2013-01-28 07:50:00,44.6,43.3,30.43,NW,307,2.0,4.0,95,0.00,,,0.00,0.0,meteohub,2013-01-28 12:50:00,
2013-01-28 07:55:00,45.0,43.7,30.43,South,171,5.0,6.0,95,0.00,,,0.00,0.0,meteohub,2013-01-28 12:55:00,
2013-01-28 08:00:00,45.1,43.9,30.43,SW,226,3.0,6.0,95,0.00,,,0.00,7.0,meteohub,2013-01-28 13:00:00,
2013-01-28 08:05:00,45.3,44.1,30.43,WSW,240,0.0,6.0,95,0.00,,,0.00,9.0,meteohub,2013-01-28 13:05:00,
2013-01-28 08:10:00,45.3,44.2,30.43,WSW,256,3.0,5.0,96,0.00,,,0.00,0.0,meteohub,2013-01-28 13:10:00,
2013-01-28 08:15:00,45.3,44.2,30.43,WSW,247,1.0,5.0,96,0.00,,,0.00,5.0,meteohub,2013-01-28 13:15:00,
2013-01-28 08:20:00,45.5,44.4,30.43,SW,221,1.0,7.0,96,0.00,,,0.00,7.0,meteohub,2013-01-28 13:20:00,
2013-01-28 08:26:00,45.5,44.4,30.43,SW,215,0.0,7.0,96,0.00,,,0.00,9.0,meteohub,2013-01-28 13:26:00,
2013-01-28 08:31:00,45.7,44.6,30.43,WSW,244,1.0,7.0,96,0.00,,,0.00,7.0,meteohub,2013-01-28 13:31:00,
2013-01-28 08:36:00,45.9,44.8,30.43,SW,236,5.0,5.0,96,0.00,,,0.00,7.0,meteohub,2013-01-28 13:36:00,
2013-01-28 08:41:00,46.0,45.0,30.43,SW,233,1.0,5.0,96,0.00,,,0.00,14.0,meteohub,2013-01-28 13:41:00,
2013-01-28 08:46:00,46.0,45.0,30.43,SSW,194,0.0,5.0,96,0.00,,,0.00,12.0,meteohub,2013-01-28 13:46:00,
2013-01-28 08:51:00,45.9,44.8,30.43,SW,224,4.0,5.0,96,0.00,,,0.00,12.0,meteohub,2013-01-28 13:51:00,
2013-01-28 08:56:00,45.9,44.8,30.43,West,263,0.0,6.0,96,0.00,,,0.00,12.0,meteohub,2013-01-28 13:56:00,
2013-01-28 09:01:00,45.1,44.1,30.42,SSE,156,0.0,6.0,96,0.00,,,0.00,25.0,meteohub,2013-01-28 14:01:00,
2013-01-28 09:06:00,45.1,44.1,30.43,South,189,0.0,6.0,96,0.00,,,0.00,18.0,meteohub,2013-01-28 14:06:00,
2013-01-28 09:11:00,45.1,44.4,30.42,South,175,2.0,5.0,97,0.00,,,0.00,21.0,meteohub,2013-01-28 14:11:00,
2013-01-28 09:17:00,44.1,43.0,30.43,South,175,1.0,3.0,96,0.00,,,0.00,28.0,meteohub,2013-01-28 14:17:00,
2013-01-28 09:22:00,44.1,43.0,30.42,SSE,168,1.0,2.0,96,0.00,,,0.00,47.0,meteohub,2013-01-28 14:22:00,
2013-01-28 09:27:00,45.1,44.4,30.42,ESE,115,0.0,2.0,97,0.00,,,0.00,44.0,meteohub,2013-01-28 14:27:00,
2013-01-28 09:32:00,45.9,45.1,30.42,ESE,115,0.0,2.0,97,0.00,,,0.00,30.0,meteohub,2013-01-28 14:32:00,
2013-01-28 09:37:00,45.7,45.0,30.42,ESE,115,0.0,2.0,97,0.00,,,0.00,26.0,meteohub,2013-01-28 14:37:00,
2013-01-28 09:42:00,45.3,44.6,30.42,ESE,119,2.0,2.0,97,0.00,,,0.00,28.0,meteohub,2013-01-28 14:42:00,
2013-01-28 09:47:00,44.8,44.1,30.42,ESE,120,1.0,3.0,97,0.00,,,0.00,54.0,meteohub,2013-01-28 14:47:00,
2013-01-28 09:52:00,44.8,44.1,30.42,ESE,120,0.0,3.0,97,0.00,,,0.00,120.0,meteohub,2013-01-28 14:52:00,
2013-01-28 09:57:00,45.1,44.4,30.42,ESE,120,1.0,3.0,97,0.00,,,0.00,65.0,meteohub,2013-01-28 14:57:00,
2013-01-28 10:02:00,45.0,44.2,30.42,ESE,120,1.0,2.0,97,0.00,,,0.00,160.0,meteohub,2013-01-28 15:02:00,
2013-01-28 10:07:00,45.1,44.4,30.42,ESE,120,1.0,2.0,97,0.00,,,0.00,153.0,meteohub,2013-01-28 15:07:00,
2013-01-28 10:12:00,45.1,44.4,30.42,ENE,67,0.0,3.0,97,0.00,,,0.00,134.0,meteohub,2013-01-28 15:12:00,
2013-01-28 10:17:00,45.3,44.6,30.42,ENE,67,1.0,3.0,97,0.00,,,0.00,167.0,meteohub,2013-01-28 15:17:00,
2013-01-28 10:22:00,45.7,45.0,30.42,ENE,67,2.0,3.0,97,0.00,,,0.00,172.0,meteohub,2013-01-28 15:22:00,
2013-01-28 10:27:00,45.7,45.0,30.42,ENE,68,1.0,2.0,97,0.00,,,0.00,244.0,meteohub,2013-01-28 15:27:00,
2013-01-28 10:32:00,45.9,45.1,30.42,SSE,151,1.0,2.0,97,0.00,,,0.00,272.0,meteohub,2013-01-28 15:32:00,
2013-01-28 10:37:00,46.2,45.5,30.42,SSE,151,1.0,3.0,97,0.00,,,0.00,318.0,meteohub,2013-01-28 15:37:00,
2013-01-28 10:42:00,46.2,45.5,30.42,East,95,3.0,3.0,97,0.00,,,0.00,107.0,meteohub,2013-01-28 15:42:00,
2013-01-28 10:47:00,45.3,44.6,30.42,SSW,210,1.0,4.0,97,0.00,,,0.00,130.0,meteohub,2013-01-28 15:47:00,
2013-01-28 10:52:00,45.3,44.6,30.42,ESE,103,2.0,4.0,97,0.00,,,0.00,258.0,meteohub,2013-01-28 15:52:00,
2013-01-28 10:57:00,45.7,45.0,30.42,East,96,1.0,4.0,97,0.00,,,0.00,538.0,meteohub,2013-01-28 15:57:00,
2013-01-28 11:02:00,45.7,45.0,30.42,SE,138,1.0,4.0,97,0.00,,,0.00,287.0,meteohub,2013-01-28 16:02:00,
2013-01-28 11:07:00,46.9,46.2,30.41,SE,138,0.0,4.0,97,0.00,,,0.00,541.0,meteohub,2013-01-28 16:07:00,
2013-01-28 11:12:00,47.3,46.2,30.41,SSE,159,3.0,4.0,96,0.00,,,0.00,186.0,meteohub,2013-01-28 16:12:00,
2013-01-28 11:17:00,46.6,45.1,30.41,ESE,116,0.0,4.0,95,0.00,,,0.00,202.0,meteohub,2013-01-28 16:17:00,
2013-01-28 11:22:00,46.6,45.1,30.41,East,101,0.0,4.0,95,0.00,,,0.00,183.0,meteohub,2013-01-28 16:22:00,
2013-01-28 11:27:00,47.8,46.4,30.40,SE,136,1.0,4.0,95,0.00,,,0.00,162.0,meteohub,2013-01-28 16:27:00,
2013-01-28 11:32:00,47.8,45.7,30.40,East,96,0.0,3.0,92,0.00,,,0.00,283.0,meteohub,2013-01-28 16:32:00,
2013-01-28 11:37:00,49.5,47.5,30.41,SSW,194,1.0,3.0,93,0.00,,,0.00,301.0,meteohub,2013-01-28 16:37:00,
2013-01-28 11:42:00,49.5,46.6,30.41,NE,35,0.0,4.0,90,0.00,,,0.00,195.0,meteohub,2013-01-28 16:42:00,
2013-01-28 11:47:00,48.9,45.5,30.41,ESE,102,2.0,4.0,88,0.00,,,0.00,218.0,meteohub,2013-01-28 16:47:00,
2013-01-28 11:52:00,48.7,45.9,30.40,East,89,1.0,5.0,90,0.00,,,0.00,111.0,meteohub,2013-01-28 16:52:00,
2013-01-28 11:57:00,48.9,46.0,30.40,East,89,0.0,5.0,90,0.00,,,0.00,128.0,meteohub,2013-01-28 16:57:00,
2013-01-28 12:02:00,49.3,46.2,30.40,South,178,1.0,5.0,89,0.00,,,0.00,135.0,meteohub,2013-01-28 17:02:00,
2013-01-28 12:07:00,48.9,45.9,30.40,SSW,201,1.0,4.0,89,0.00,,,0.00,128.0,meteohub,2013-01-28 17:07:00,
2013-01-28 12:12:00,48.4,45.0,30.40,SE,146,1.0,4.0,88,0.00,,,0.00,139.0,meteohub,2013-01-28 17:12:00,
2013-01-28 12:17:00,47.7,45.0,30.39,SE,131,1.0,3.0,90,0.00,,,0.00,149.0,meteohub,2013-01-28 17:17:00,
2013-01-28 12:22:00,48.6,45.5,30.38,SE,131,0.0,3.0,89,0.00,,,0.00,309.0,meteohub,2013-01-28 17:22:00,
2013-01-28 12:27:00,50.7,46.9,30.38,SW,214,0.0,4.0,87,0.00,,,0.00,267.0,meteohub,2013-01-28 17:27:00,
2013-01-28 12:32:00,51.3,47.3,30.38,SSW,202,3.0,4.0,86,0.00,,,0.00,397.0,meteohub,2013-01-28 17:32:00,
2013-01-28 12:37:00,51.3,46.2,30.37,SW,215,0.0,4.0,83,0.00,,,0.00,178.0,meteohub,2013-01-28 17:37:00,
2013-01-28 12:42:00,52.0,47.8,30.37,SE,138,2.0,4.0,86,0.00,,,0.00,244.0,meteohub,2013-01-28 17:42:00,
2013-01-28 12:47:00,54.9,48.6,30.36,South,184,1.0,6.0,79,0.00,,,0.00,250.0,meteohub,2013-01-28 17:47:00,
2013-01-28 12:52:00,52.9,45.9,30.36,SSW,213,1.0,6.0,77,0.00,,,0.00,195.0,meteohub,2013-01-28 17:52:00,
2013-01-28 12:57:00,52.5,46.9,30.36,South,175,1.0,6.0,81,0.00,,,0.00,742.0,meteohub,2013-01-28 17:57:00,
2013-01-28 13:02:00,53.4,47.5,30.35,SE,146,2.0,6.0,80,0.00,,,0.00,763.0,meteohub,2013-01-28 18:02:00,
2013-01-28 13:07:00,55.0,47.7,30.35,SE,141,0.0,6.0,76,0.00,,,0.00,156.0,meteohub,2013-01-28 18:07:00,
2013-01-28 13:12:00,54.9,47.5,30.35,WSW,248,3.0,6.0,76,0.00,,,0.00,167.0,meteohub,2013-01-28 18:12:00,
2013-01-28 13:17:00,56.1,47.7,30.34,West,259,5.0,5.0,73,0.00,,,0.00,640.0,meteohub,2013-01-28 18:17:00,
2013-01-28 13:22:00,53.6,44.4,30.34,South,171,0.0,7.0,71,0.00,,,0.00,172.0,meteohub,2013-01-28 18:22:00,
2013-01-28 13:27:00,52.9,44.8,30.33,ESE,113,3.0,7.0,74,0.00,,,0.00,213.0,meteohub,2013-01-28 18:27:00,
2013-01-28 13:32:00,50.5,43.0,30.32,South,186,4.0,7.0,75,0.00,,,0.00,274.0,meteohub,2013-01-28 18:32:00,
2013-01-28 13:37:00,51.6,44.2,30.33,SSE,165,2.0,9.0,76,0.00,,,0.00,309.0,meteohub,2013-01-28 18:37:00,
2013-01-28 13:42:00,51.3,45.3,30.33,WSW,258,2.0,9.0,80,0.00,,,0.00,232.0,meteohub,2013-01-28 18:42:00,
2013-01-28 13:47:00,52.3,45.0,30.33,SSE,155,1.0,6.0,76,0.00,,,0.00,251.0,meteohub,2013-01-28 18:47:00,
2013-01-28 13:52:00,53.4,46.8,30.32,SSE,161,1.0,6.0,78,0.00,,,0.00,244.0,meteohub,2013-01-28 18:52:00,
2013-01-28 13:57:00,54.3,46.9,30.32,SSW,195,4.0,6.0,76,0.00,,,0.00,297.0,meteohub,2013-01-28 18:57:00,
2013-01-28 14:02:00,55.6,47.1,30.32,SW,233,2.0,8.0,73,0.00,,,0.00,146.0,meteohub,2013-01-28 19:02:00,
2013-01-28 14:07:00,55.4,48.4,30.32,West,261,4.0,8.0,77,0.00,,,0.00,257.0,meteohub,2013-01-28 19:07:00,
2013-01-28 14:12:00,56.1,48.9,30.31,WSW,250,4.0,12.0,77,0.00,,,0.00,178.0,meteohub,2013-01-28 19:12:00,
2013-01-28 14:17:00,55.9,48.2,30.31,South,172,2.0,12.0,75,0.00,,,0.00,116.0,meteohub,2013-01-28 19:17:00,
2013-01-28 14:22:00,54.1,46.4,30.31,SE,128,1.0,12.0,75,0.00,,,0.00,120.0,meteohub,2013-01-28 19:22:00,
2013-01-28 14:27:00,53.1,46.0,30.31,SSE,150,0.0,8.0,77,0.00,,,0.00,95.0,meteohub,2013-01-28 19:27:00,
2013-01-28 14:32:00,53.1,46.8,30.31,SSE,157,0.0,8.0,79,0.00,,,0.00,98.0,meteohub,2013-01-28 19:32:00,
2013-01-28 14:37:00,52.5,45.9,30.31,SE,127,1.0,8.0,78,0.00,,,0.00,67.0,meteohub,2013-01-28 19:37:00,
2013-01-28 14:42:00,52.0,45.7,30.31,South,171,1.0,8.0,79,0.00,,,0.00,93.0,meteohub,2013-01-28 19:42:00,
2013-01-28 14:47:00,52.5,46.6,30.31,SE,137,5.0,5.0,80,0.00,,,0.00,90.0,meteohub,2013-01-28 19:47:00,
2013-01-28 14:52:00,53.1,47.3,30.30,WSW,240,0.0,7.0,81,0.00,,,0.00,127.0,meteohub,2013-01-28 19:52:00,
2013-01-28 14:57:00,53.2,46.9,30.30,WSW,239,0.0,7.0,79,0.00,,,0.00,93.0,meteohub,2013-01-28 19:57:00,
2013-01-28 15:02:00,53.1,47.1,30.31,SW,235,1.0,7.0,80,0.00,,,0.00,137.0,meteohub,2013-01-28 20:02:00,
2013-01-28 15:07:00,53.6,47.8,30.30,SSW,195,1.0,3.0,81,0.00,,,0.00,86.0,meteohub,2013-01-28 20:07:00,
2013-01-28 15:12:00,53.8,48.0,30.30,West,273,4.0,5.0,81,0.00,,,0.00,128.0,meteohub,2013-01-28 20:12:00,
2013-01-28 15:17:00,54.0,48.2,30.30,WSW,253,4.0,6.0,81,0.00,,,0.00,56.0,meteohub,2013-01-28 20:17:00,
2013-01-28 15:22:00,53.4,47.7,30.30,South,191,1.0,7.0,81,0.00,,,0.00,53.0,meteohub,2013-01-28 20:22:00,
2013-01-28 15:27:00,53.4,48.0,30.30,West,263,1.0,7.0,82,0.00,,,0.00,53.0,meteohub,2013-01-28 20:27:00,
2013-01-28 15:32:00,53.4,48.4,30.30,SSW,198,1.0,7.0,83,0.00,,,0.00,62.0,meteohub,2013-01-28 20:32:00,
2013-01-28 15:37:00,54.0,48.9,30.30,SW,229,3.0,5.0,83,0.00,,,0.00,72.0,meteohub,2013-01-28 20:37:00,
2013-01-28 15:42:00,54.1,49.1,30.30,SW,227,3.0,5.0,83,0.00,,,0.00,81.0,meteohub,2013-01-28 20:42:00,
2013-01-28 15:47:00,54.1,49.1,30.29,SW,219,2.0,6.0,83,0.00,,,0.00,86.0,meteohub,2013-01-28 20:47:00,
2013-01-28 15:52:00,54.3,49.6,30.29,SW,232,2.0,6.0,84,0.00,,,0.00,91.0,meteohub,2013-01-28 20:52:00,
2013-01-28 15:57:00,54.7,49.6,30.29,SSW,213,5.0,6.0,83,0.00,,,0.00,77.0,meteohub,2013-01-28 20:57:00,
2013-01-28 16:02:00,54.3,49.3,30.29,West,259,2.0,7.0,83,0.00,,,0.00,60.0,meteohub,2013-01-28 21:02:00,
2013-01-28 16:07:00,54.1,49.1,30.29,WSW,237,4.0,7.0,83,0.00,,,0.00,58.0,meteohub,2013-01-28 21:07:00,
2013-01-28 16:12:00,54.1,49.5,30.29,SSW,196,1.0,7.0,84,0.00,,,0.00,49.0,meteohub,2013-01-28 21:12:00,
2013-01-28 16:17:00,54.1,49.1,30.29,SSW,213,2.0,7.0,83,0.00,,,0.00,62.0,meteohub,2013-01-28 21:17:00,
2013-01-28 16:22:00,54.1,49.1,30.29,WSW,252,4.0,7.0,83,0.00,,,0.00,81.0,meteohub,2013-01-28 21:22:00,
2013-01-28 16:27:00,54.3,49.3,30.28,SW,227,2.0,8.0,83,0.00,,,0.00,56.0,meteohub,2013-01-28 21:27:00,
2013-01-28 16:32:00,54.1,49.5,30.28,South,182,3.0,8.0,84,0.00,,,0.00,51.0,meteohub,2013-01-28 21:32:00,
2013-01-28 16:37:00,54.0,49.3,30.28,SSW,199,3.0,8.0,84,0.00,,,0.00,44.0,meteohub,2013-01-28 21:37:00,
2013-01-28 16:42:00,54.0,49.3,30.28,SSW,199,2.0,7.0,84,0.00,,,0.00,47.0,meteohub,2013-01-28 21:42:00,
2013-01-28 16:47:00,54.0,49.3,30.28,West,277,1.0,7.0,84,0.00,,,0.00,67.0,meteohub,2013-01-28 21:47:00,
2013-01-28 16:52:00,54.0,49.3,30.28,West,276,1.0,7.0,84,0.00,,,0.00,47.0,meteohub,2013-01-28 21:52:00,
2013-01-28 16:57:00,53.8,49.1,30.28,WSW,252,4.0,7.0,84,0.00,,,0.00,33.0,meteohub,2013-01-28 21:57:00,
2013-01-28 17:02:00,53.2,48.9,30.28,SW,232,2.0,7.0,85,0.00,,,0.00,33.0,meteohub,2013-01-28 22:02:00,
2013-01-28 17:07:00,53.4,49.1,30.27,SW,230,2.0,5.0,85,0.00,,,0.00,51.0,meteohub,2013-01-28 22:07:00,
2013-01-28 17:12:00,53.8,49.1,30.28,West,275,3.0,5.0,84,0.00,,,0.00,54.0,meteohub,2013-01-28 22:12:00,
2013-01-28 17:17:00,53.8,48.7,30.27,WNW,282,1.0,5.0,83,0.00,,,0.00,19.0,meteohub,2013-01-28 22:17:00,
2013-01-28 17:22:00,53.2,48.6,30.27,WSW,248,3.0,6.0,84,0.00,,,0.00,25.0,meteohub,2013-01-28 22:22:00,
2013-01-28 17:27:00,53.1,48.4,30.27,WNW,284,1.0,7.0,84,0.00,,,0.00,18.0,meteohub,2013-01-28 22:27:00,
2013-01-28 17:32:00,53.1,48.7,30.27,SW,230,2.0,7.0,85,0.00,,,0.00,21.0,meteohub,2013-01-28 22:32:00,
2013-01-28 17:37:00,52.7,48.0,30.27,WNW,293,2.0,7.0,84,0.00,,,0.00,14.0,meteohub,2013-01-28 22:37:00,
2013-01-28 17:42:00,52.3,47.7,30.27,West,272,2.0,6.0,84,0.00,,,0.00,12.0,meteohub,2013-01-28 22:42:00,
2013-01-28 17:47:00,52.2,47.8,30.27,WNW,295,3.0,6.0,85,0.00,,,0.00,7.0,meteohub,2013-01-28 22:47:00,
2013-01-28 17:52:00,52.3,47.7,30.27,WNW,299,3.0,5.0,84,0.00,,,0.00,5.0,meteohub,2013-01-28 22:52:00,
2013-01-28 17:57:00,52.5,47.8,30.27,WNW,289,1.0,5.0,84,0.00,,,0.00,0.0,meteohub,2013-01-28 22:57:00,
2013-01-28 18:02:00,52.2,47.5,30.27,WNW,286,1.0,5.0,84,0.00,,,0.00,0.0,meteohub,2013-01-28 23:02:00,
2013-01-28 18:08:00,51.4,46.8,30.27,SSW,196,1.0,4.0,84,0.00,,,0.00,0.0,meteohub,2013-01-28 23:08:00,
2013-01-28 18:13:00,51.3,46.9,30.27,West,268,0.0,4.0,85,0.00,,,0.00,0.0,meteohub,2013-01-28 23:13:00,
2013-01-28 18:18:00,51.1,47.1,30.27,NW,311,2.0,4.0,86,0.00,,,0.00,0.0,meteohub,2013-01-28 23:18:00,
2013-01-28 18:23:00,51.3,46.9,30.27,West,281,0.0,4.0,85,0.00,,,0.00,0.0,meteohub,2013-01-28 23:23:00,
2013-01-28 18:28:00,50.4,45.7,30.27,West,281,0.0,4.0,84,0.00,,,0.00,0.0,meteohub,2013-01-28 23:28:00,
2013-01-28 18:33:00,49.3,45.0,30.27,West,281,2.0,3.0,85,0.00,,,0.00,0.0,meteohub,2013-01-28 23:33:00,
2013-01-28 18:38:00,48.9,45.1,30.27,West,262,1.0,2.0,87,0.00,,,0.00,0.0,meteohub,2013-01-28 23:38:00,
2013-01-28 18:43:00,48.7,45.7,30.28,South,182,0.0,4.0,89,0.00,,,0.00,0.0,meteohub,2013-01-28 23:43:00,
2013-01-28 18:48:00,48.7,45.0,30.28,SE,128,0.0,4.0,87,0.00,,,0.00,0.0,meteohub,2013-01-28 23:48:00,
2013-01-28 18:54:00,47.8,44.4,30.28,SE,125,2.0,4.0,88,0.00,,,0.00,0.0,meteohub,2013-01-28 23:54:00,
2013-01-28 18:59:00,47.7,45.0,30.27,ENE,72,0.0,3.0,90,0.00,,,0.00,0.0,meteohub,2013-01-28 23:59:00,
2013-01-28 19:04:00,48.4,45.5,30.27,ENE,72,0.0,3.0,90,0.00,,,0.00,0.0,meteohub,2013-01-29 00:04:00,
2013-01-28 19:09:00,48.9,45.5,30.27,West,263,1.0,3.0,88,0.00,,,0.00,0.0,meteohub,2013-01-29 00:09:00,
2013-01-28 19:14:00,49.3,45.9,30.27,SE,142,1.0,4.0,88,0.00,,,0.00,0.0,meteohub,2013-01-29 00:14:00,
2013-01-28 19:19:00,49.8,46.0,30.27,ESE,108,1.0,4.0,87,0.00,,,0.00,0.0,meteohub,2013-01-29 00:19:00,
2013-01-28 19:24:00,49.6,45.9,30.27,ESE,108,0.0,4.0,87,0.00,,,0.00,0.0,meteohub,2013-01-29 00:24:00,
2013-01-28 19:29:00,49.3,45.9,30.27,South,184,2.0,3.0,88,0.00,,,0.00,0.0,meteohub,2013-01-29 00:29:00,
2013-01-28 19:34:00,50.4,46.4,30.27,South,184,0.0,3.0,86,0.00,,,0.00,0.0,meteohub,2013-01-29 00:34:00,
2013-01-28 19:39:00,50.5,46.2,30.27,SE,133,1.0,3.0,85,0.00,,,0.00,0.0,meteohub,2013-01-29 00:39:00,
2013-01-28 19:45:00,50.9,46.6,30.27,South,171,0.0,3.0,85,0.00,,,0.00,0.0,meteohub,2013-01-29 00:45:00,
2013-01-28 19:50:00,51.3,46.2,30.27,South,171,0.0,3.0,83,0.00,,,0.00,0.0,meteohub,2013-01-29 00:50:00,
2013-01-28 19:55:00,52.2,46.6,30.27,West,267,1.0,4.0,81,0.00,,,0.00,0.0,meteohub,2013-01-29 00:55:00,
2013-01-28 20:00:00,52.5,46.6,30.27,South,186,1.0,4.0,80,0.00,,,0.00,0.0,meteohub,2013-01-29 01:00:00,
2013-01-28 20:05:00,52.3,46.4,30.26,South,186,0.0,3.0,80,0.00,,,0.00,0.0,meteohub,2013-01-29 01:05:00,
2013-01-28 20:10:00,52.3,46.4,30.26,ENE,61,0.0,3.0,80,0.00,,,0.00,0.0,meteohub,2013-01-29 01:10:00,
2013-01-28 20:15:00,52.2,46.6,30.26,SSE,152,0.0,3.0,81,0.00,,,0.00,0.0,meteohub,2013-01-29 01:15:00,
2013-01-28 20:20:00,52.0,46.4,30.26,SSE,152,0.0,3.0,81,0.00,,,0.00,0.0,meteohub,2013-01-29 01:20:00,
2013-01-28 20:25:00,52.2,46.2,30.26,SSE,152,0.0,3.0,80,0.00,,,0.00,0.0,meteohub,2013-01-29 01:25:00,
2013-01-28 20:31:00,51.1,45.9,30.26,SSE,152,0.0,2.0,82,0.00,,,0.00,0.0,meteohub,2013-01-29 01:31:00,
2013-01-28 20:36:00,50.7,45.7,30.26,SSE,152,1.0,1.0,83,0.00,,,0.00,0.0,meteohub,2013-01-29 01:36:00,
2013-01-28 20:41:00,50.7,45.5,30.26,SSE,152,1.0,2.0,82,0.00,,,0.00,0.0,meteohub,2013-01-29 01:41:00,
2013-01-28 20:46:00,50.9,45.3,30.26,SSE,152,0.0,2.0,81,0.00,,,0.00,0.0,meteohub,2013-01-29 01:46:00,
2013-01-28 20:51:00,50.5,45.0,30.26,SSE,152,1.0,2.0,81,0.00,,,0.00,0.0,meteohub,2013-01-29 01:51:00,
2013-01-28 20:56:00,50.4,45.3,30.26,SSE,152,0.0,2.0,83,0.00,,,0.00,0.0,meteohub,2013-01-29 01:56:00,
2013-01-28 21:01:00,50.4,45.3,30.26,SSE,152,0.0,2.0,83,0.00,,,0.00,0.0,meteohub,2013-01-29 02:01:00,
2013-01-28 21:06:00,49.8,45.1,30.26,East,94,0.0,2.0,84,0.00,,,0.00,0.0,meteohub,2013-01-29 02:06:00,
2013-01-28 21:11:00,49.5,44.8,30.26,ENE,62,1.0,3.0,84,0.00,,,0.00,0.0,meteohub,2013-01-29 02:11:00,
2013-01-28 21:16:00,48.9,44.6,30.26,North,355,1.0,3.0,85,0.00,,,0.00,0.0,meteohub,2013-01-29 02:16:00,
2013-01-28 21:21:00,49.6,45.0,30.26,North,355,2.0,3.0,84,0.00,,,0.00,0.0,meteohub,2013-01-29 02:21:00,
2013-01-28 21:27:00,50.0,44.8,30.26,North,355,0.0,3.0,82,0.00,,,0.00,0.0,meteohub,2013-01-29 02:27:00,
2013-01-28 21:32:00,50.2,45.0,30.26,North,355,1.0,3.0,82,0.00,,,0.00,0.0,meteohub,2013-01-29 02:32:00,
2013-01-28 21:37:00,50.2,44.6,30.26,North,355,1.0,2.0,81,0.00,,,0.00,0.0,meteohub,2013-01-29 02:37:00,
2013-01-28 21:42:00,50.4,44.4,30.26,NW,308,1.0,2.0,80,0.00,,,0.00,0.0,meteohub,2013-01-29 02:42:00,
2013-01-28 21:47:00,50.5,44.2,30.25,WNW,285,2.0,4.0,79,0.00,,,0.00,0.0,meteohub,2013-01-29 02:47:00,
2013-01-28 21:52:00,50.5,43.5,30.26,WNW,303,2.0,4.0,77,0.00,,,0.00,0.0,meteohub,2013-01-29 02:52:00,
2013-01-28 21:57:00,50.7,43.2,30.25,WNW,300,2.0,4.0,75,0.00,,,0.00,0.0,meteohub,2013-01-29 02:57:00,
2013-01-28 22:02:00,51.3,43.0,30.25,WNW,292,3.0,5.0,73,0.00,,,0.00,0.0,meteohub,2013-01-29 03:02:00,
2013-01-28 22:07:00,51.6,42.4,30.25,WNW,297,2.0,5.0,71,0.00,,,0.00,0.0,meteohub,2013-01-29 03:07:00,
2013-01-28 22:12:00,52.2,41.9,30.25,NW,307,2.0,5.0,68,0.00,,,0.00,0.0,meteohub,2013-01-29 03:12:00,
2013-01-28 22:17:00,52.7,41.2,30.25,WNW,293,1.0,5.0,65,0.00,,,0.00,0.0,meteohub,2013-01-29 03:17:00,
2013-01-28 22:22:00,52.9,41.0,30.25,West,277,2.0,5.0,64,0.00,,,0.00,0.0,meteohub,2013-01-29 03:22:00,
2013-01-28 22:27:00,52.5,40.3,30.25,West,277,0.0,5.0,63,0.00,,,0.00,0.0,meteohub,2013-01-29 03:27:00,
2013-01-28 22:32:00,52.3,40.1,30.25,WSW,256,2.0,4.0,63,0.00,,,0.00,0.0,meteohub,2013-01-29 03:32:00,
2013-01-28 22:38:00,52.7,39.6,30.25,NW,324,2.0,3.0,61,0.00,,,0.00,0.0,meteohub,2013-01-29 03:38:00,
2013-01-28 22:43:00,52.9,39.4,30.25,NW,311,0.0,3.0,60,0.00,,,0.00,0.0,meteohub,2013-01-29 03:43:00,
2013-01-28 22:48:00,53.2,38.8,30.25,WSW,240,1.0,3.0,58,0.00,,,0.00,0.0,meteohub,2013-01-29 03:48:00,
2013-01-28 22:53:00,53.2,39.2,30.25,WSW,240,3.0,6.0,59,0.00,,,0.00,0.0,meteohub,2013-01-29 03:53:00,
2013-01-28 22:58:00,52.7,38.8,30.25,West,265,2.0,6.0,59,0.00,,,0.00,0.0,meteohub,2013-01-29 03:58:00,
2013-01-28 23:04:00,52.7,38.8,30.25,WNW,294,1.0,6.0,59,0.00,,,0.00,0.0,meteohub,2013-01-29 04:04:00,
2013-01-28 23:09:00,52.7,39.2,30.25,WNW,299,1.0,4.0,60,0.00,,,0.00,0.0,meteohub,2013-01-29 04:09:00,
2013-01-28 23:14:00,52.5,39.4,30.25,WNW,299,1.0,4.0,61,0.00,,,0.00,0.0,meteohub,2013-01-29 04:14:00,
2013-01-28 23:19:00,52.3,38.8,30.25,NW,308,3.0,5.0,60,0.00,,,0.00,0.0,meteohub,2013-01-29 04:19:00,
2013-01-28 23:24:00,52.5,37.8,30.25,WNW,296,1.0,5.0,57,0.00,,,0.00,0.0,meteohub,2013-01-29 04:24:00,
2013-01-28 23:29:00,52.9,37.6,30.25,NNW,335,1.0,5.0,56,0.00,,,0.00,0.0,meteohub,2013-01-29 04:29:00,
2013-01-28 23:34:00,52.5,37.8,30.25,East,89,0.0,5.0,57,0.00,,,0.00,0.0,meteohub,2013-01-29 04:34:00,
2013-01-28 23:39:00,52.5,38.1,30.25,NNW,338,0.0,5.0,58,0.00,,,0.00,0.0,meteohub,2013-01-29 04:39:00,
2013-01-28 23:44:00,52.3,37.6,30.25,ESE,115,0.0,5.0,57,0.00,,,0.00,0.0,meteohub,2013-01-29 04:44:00,
2013-01-28 23:49:00,52.5,37.2,30.25,WNW,302,0.0,5.0,56,0.00,,,0.00,0.0,meteohub,2013-01-29 04:49:00,
2013-01-28 23:54:00,52.5,36.9,30.25,WNW,302,0.0,5.0,55,0.00,,,0.00,0.0,meteohub,2013-01-29 04:54:00,
2013-01-28 23:59:00,52.3,36.7,30.25,WNW,302,1.0,4.0,55,0.00,,,0.00,0.0,meteohub,2013-01-29 04:59:00,